createdAt,value
2022-09-09T00:00:18.364Z,156.84
2022-09-09T00:01:18.361Z,158.48
2022-09-09T00:02:18.470Z,159.84
2022-09-09T00:03:18.458Z,160.46
2022-09-09T00:04:18.333Z,159.54
2022-09-09T00:05:18.360Z,161.08
2022-09-09T00:06:18.310Z,159.99
2022-09-09T00:07:18.300Z,160.15
2022-09-09T00:08:18.301Z,160.30
2022-09-09T00:09:18.282Z,159.54
2022-09-09T00:10:18.262Z,158.63
2022-09-09T00:11:18.261Z,157.88
2022-09-09T00:12:18.250Z,156.99
2022-09-09T00:13:18.250Z,158.18
2022-09-09T00:14:18.239Z,158.03
2022-09-09T00:15:18.220Z,157.58
2022-09-09T00:16:18.248Z,156.25
2022-09-09T00:17:18.191Z,158.03
2022-09-09T00:18:18.182Z,158.18
2022-09-09T00:19:18.159Z,158.48
2022-09-09T00:20:18.159Z,158.03
2022-09-09T00:21:18.148Z,157.58
2022-09-09T00:22:18.139Z,157.73
2022-09-09T00:23:18.131Z,158.63
2022-09-09T00:24:18.109Z,159.08
2022-09-09T00:25:18.098Z,159.38
2022-09-09T00:26:18.089Z,159.08
2022-09-09T00:27:18.078Z,159.84
2022-09-09T00:28:18.078Z,159.84
2022-09-09T00:29:18.057Z,160.77
2022-09-09T00:30:18.048Z,162.17
2022-09-09T00:31:18.086Z,162.17
2022-09-09T00:32:18.027Z,163.92
2022-09-09T00:33:18.033Z,163.28
2022-09-09T00:34:18.007Z,163.28
2022-09-09T00:35:17.998Z,162.17
2022-09-09T00:36:17.986Z,161.86
2022-09-09T00:37:17.976Z,161.70
2022-09-09T00:38:17.977Z,161.23
2022-09-09T00:39:17.948Z,160.92
2022-09-09T00:40:18.016Z,160.61
2022-09-09T00:41:17.933Z,161.23
2022-09-09T00:42:17.937Z,161.54
2022-09-09T00:43:17.922Z,163.28
2022-09-09T00:44:17.945Z,164.09
2022-09-09T00:45:17.875Z,165.55
2022-09-09T00:46:17.921Z,164.90
2022-09-09T00:47:17.844Z,165.22
2022-09-09T00:48:17.833Z,165.06
2022-09-09T00:49:17.817Z,164.90
2022-09-09T00:50:17.813Z,165.39
2022-09-09T00:51:17.803Z,166.21
2022-09-09T00:52:17.804Z,166.04
2022-09-09T00:53:17.802Z,167.38
2022-09-09T00:54:17.783Z,167.21
2022-09-09T00:55:17.771Z,166.04
2022-09-09T00:56:17.753Z,167.21
2022-09-09T00:57:17.743Z,167.54
2022-09-09T00:58:17.753Z,169.24
2022-09-09T00:59:17.740Z,171.15
2022-09-09T01:00:17.724Z,171.15
2022-09-09T01:01:17.753Z,172.21
2022-09-09T01:02:17.772Z,172.39
2022-09-09T01:03:17.731Z,174.55
2022-09-09T01:04:17.703Z,175.10
2022-09-09T01:05:17.700Z,174.92
2022-09-09T01:06:17.690Z,174.01
2022-09-09T01:07:17.671Z,172.57
2022-09-09T01:08:17.670Z,172.21
2022-09-09T01:09:17.651Z,170.63
2022-09-09T01:10:17.630Z,169.59
2022-09-09T01:11:17.631Z,171.15
2022-09-09T01:12:17.621Z,172.04
2022-09-09T01:13:17.631Z,171.68
2022-09-09T01:14:17.609Z,172.93
2022-09-09T01:15:17.589Z,173.29
2022-09-09T01:16:17.623Z,172.57
2022-09-09T01:17:17.578Z,174.37
2022-09-09T01:18:17.569Z,173.47
2022-09-09T01:19:17.568Z,174.19
2022-09-09T01:20:17.550Z,174.92
2022-09-09T01:21:17.588Z,176.40
2022-09-09T01:22:17.545Z,176.96
2022-09-09T01:23:17.527Z,177.53
2022-09-09T01:24:17.528Z,176.77
2022-09-09T01:25:17.508Z,178.48
2022-09-09T01:26:17.496Z,176.96
2022-09-09T01:27:17.484Z,178.48
2022-09-09T01:28:17.476Z,177.53
2022-09-09T01:29:17.465Z,178.67
2022-09-09T01:30:17.446Z,179.05
2022-09-09T01:31:17.506Z,178.29
2022-09-09T01:32:17.425Z,177.90
2022-09-09T01:33:17.414Z,178.29
2022-09-09T01:34:17.417Z,178.29
2022-09-09T01:35:17.404Z,178.86
2022-09-09T01:36:17.394Z,178.67
2022-09-09T01:37:17.387Z,178.86
2022-09-09T01:38:17.374Z,180.21
2022-09-09T01:39:17.382Z,180.02
2022-09-09T01:40:17.435Z,181.19
2022-09-09T01:41:17.354Z,180.60
2022-09-09T01:42:17.343Z,183.58
2022-09-09T01:43:17.334Z,182.58
2022-09-09T01:44:17.333Z,183.99
2022-09-09T01:45:17.319Z,185.01
2022-09-09T01:46:17.425Z,185.83
2022-09-09T01:47:17.292Z,184.80
2022-09-09T01:48:17.283Z,184.39
2022-09-09T01:49:17.323Z,185.01
2022-09-09T01:50:17.273Z,185.01
2022-09-09T01:51:17.261Z,185.62
2022-09-09T01:52:17.242Z,183.78
2022-09-09T01:53:17.242Z,183.18
2022-09-09T01:54:17.231Z,183.18
2022-09-09T01:55:17.211Z,182.58
2022-09-09T01:56:17.206Z,182.58
2022-09-09T01:57:17.190Z,182.78
2022-09-09T01:58:17.181Z,183.18
2022-09-09T01:59:17.170Z,181.98
2022-09-09T02:00:17.165Z,180.21
2022-09-09T02:01:17.235Z,182.18
2022-09-09T02:02:17.162Z,181.39
2022-09-09T02:03:17.119Z,180.21
2022-09-09T02:04:17.086Z,180.40
2022-09-09T02:05:17.073Z,180.60
2022-09-09T02:06:17.060Z,181.39
2022-09-09T02:07:17.047Z,181.98
2022-09-09T02:08:17.027Z,182.58
2022-09-09T02:09:17.019Z,182.38
2022-09-09T02:10:16.988Z,182.78
2022-09-09T02:11:16.971Z,182.98
2022-09-09T02:12:16.948Z,183.38
2022-09-09T02:13:16.929Z,184.39
2022-09-09T02:14:16.918Z,185.21
2022-09-09T02:15:16.887Z,185.01
2022-09-09T02:16:16.920Z,185.62
2022-09-09T02:17:16.856Z,184.39
2022-09-09T02:18:16.846Z,185.62
2022-09-09T02:19:16.836Z,186.66
2022-09-09T02:20:16.805Z,185.83
2022-09-09T02:21:16.796Z,187.00
2022-09-09T02:22:16.768Z,187.32
2022-09-09T02:23:16.768Z,188.29
2022-09-09T02:24:16.735Z,187.85
2022-09-09T02:25:16.705Z,188.18
2022-09-09T02:26:16.692Z,189.04
2022-09-09T02:27:16.672Z,187.96
2022-09-09T02:28:16.644Z,187.10
2022-09-09T02:29:16.645Z,187.75
2022-09-09T02:30:16.612Z,189.59
2022-09-09T02:31:16.637Z,187.96
2022-09-09T02:32:16.580Z,188.18
2022-09-09T02:33:16.564Z,188.39
2022-09-09T02:34:16.564Z,188.72
2022-09-09T02:35:16.551Z,188.39
2022-09-09T02:36:16.522Z,189.59
2022-09-09T02:37:16.511Z,188.83
2022-09-09T02:38:16.492Z,189.48
2022-09-09T02:39:16.482Z,190.69
2022-09-09T02:40:16.487Z,191.58
2022-09-09T02:41:16.434Z,191.25
2022-09-09T02:42:16.415Z,192.15
2022-09-09T02:43:16.391Z,195.12
2022-09-09T02:44:16.400Z,195.46
2022-09-09T02:45:16.379Z,196.05
2022-09-09T02:46:16.412Z,196.28
2022-09-09T02:47:16.330Z,196.28
2022-09-09T02:48:16.322Z,196.75
2022-09-09T02:49:16.309Z,197.11
2022-09-09T02:50:16.270Z,196.75
2022-09-09T02:51:16.257Z,197.58
2022-09-09T02:52:16.237Z,196.05
2022-09-09T02:53:16.222Z,196.16
2022-09-09T02:54:16.217Z,196.16
2022-09-09T02:55:16.189Z,195.93
2022-09-09T02:56:16.186Z,193.62
2022-09-09T02:57:16.178Z,194.31
2022-09-09T02:58:16.159Z,196.28
2022-09-09T02:59:16.166Z,196.16
2022-09-09T03:00:16.138Z,193.96
2022-09-09T03:01:16.152Z,193.96
2022-09-09T03:02:16.157Z,195.12
2022-09-09T03:03:16.098Z,195.81
2022-09-09T03:04:16.104Z,195.93
2022-09-09T03:05:16.084Z,196.52
2022-09-09T03:06:16.067Z,197.35
2022-09-09T03:07:16.057Z,196.40
2022-09-09T03:08:16.049Z,195.81
2022-09-09T03:09:16.044Z,196.40
2022-09-09T03:10:16.017Z,195.46
2022-09-09T03:11:16.006Z,195.12
2022-09-09T03:12:16.005Z,195.46
2022-09-09T03:13:15.997Z,195.58
2022-09-09T03:14:16.003Z,194.08
2022-09-09T03:15:15.976Z,193.39
2022-09-09T03:16:15.999Z,193.28
2022-09-09T03:17:15.954Z,194.65
2022-09-09T03:18:15.957Z,196.05
2022-09-09T03:19:15.954Z,196.40
2022-09-09T03:20:15.933Z,196.28
2022-09-09T03:21:15.913Z,196.40
2022-09-09T03:22:15.901Z,197.23
2022-09-09T03:23:16.173Z,196.63
2022-09-09T03:24:15.893Z,196.40
2022-09-09T03:25:15.873Z,197.11
2022-09-09T03:26:15.863Z,196.28
2022-09-09T03:27:15.853Z,197.70
2022-09-09T03:28:15.843Z,198.90
2022-09-09T03:29:15.862Z,201.59
2022-09-09T03:30:15.822Z,202.21
2022-09-09T03:31:15.893Z,201.46
2022-09-09T03:32:15.812Z,201.34
2022-09-09T03:33:15.793Z,198.06
2022-09-09T03:34:15.781Z,198.06
2022-09-09T03:35:15.781Z,198.78
2022-09-09T03:36:15.762Z,198.78
2022-09-09T03:37:15.749Z,201.22
2022-09-09T03:38:15.738Z,200.97
2022-09-09T03:39:15.720Z,202.71
2022-09-09T03:40:15.785Z,201.34
2022-09-09T03:41:15.700Z,202.96
2022-09-09T03:42:15.690Z,202.84
2022-09-09T03:43:15.681Z,203.21
2022-09-09T03:44:15.671Z,204.61
2022-09-09T03:45:15.659Z,204.73
2022-09-09T03:46:15.678Z,204.48
2022-09-09T03:47:15.629Z,205.63
2022-09-09T03:48:15.609Z,207.19
2022-09-09T03:49:15.607Z,206.80
2022-09-09T03:50:15.609Z,207.45
2022-09-09T03:51:15.598Z,206.02
2022-09-09T03:52:15.588Z,206.54
2022-09-09T03:53:15.581Z,207.85
2022-09-09T03:54:15.573Z,207.19
2022-09-09T03:55:15.567Z,209.30
2022-09-09T03:56:15.538Z,209.17
2022-09-09T03:57:15.537Z,210.38
2022-09-09T03:58:15.526Z,210.24
2022-09-09T03:59:15.568Z,210.11
2022-09-09T04:00:15.529Z,208.51
2022-09-09T04:01:15.554Z,208.51
2022-09-09T04:02:15.555Z,208.77
2022-09-09T04:03:15.507Z,206.15
2022-09-09T04:04:15.497Z,206.15
2022-09-09T04:05:15.503Z,204.99
2022-09-09T04:06:15.493Z,207.71
2022-09-09T04:07:15.479Z,208.37
2022-09-09T04:08:15.465Z,207.98
2022-09-09T04:09:15.478Z,210.11
2022-09-09T04:10:15.464Z,211.19
2022-09-09T04:11:15.455Z,209.71
2022-09-09T04:12:15.454Z,210.92
2022-09-09T04:13:15.443Z,209.97
2022-09-09T04:14:15.441Z,207.98
2022-09-09T04:15:15.447Z,209.57
2022-09-09T04:16:15.448Z,209.44
2022-09-09T04:17:15.423Z,209.44
2022-09-09T04:18:19.833Z,208.37
2022-09-09T04:19:15.479Z,206.41
2022-09-09T04:20:15.423Z,205.89
2022-09-09T04:21:15.411Z,203.59
2022-09-09T04:22:15.412Z,204.61
2022-09-09T04:23:15.402Z,207.32
2022-09-09T04:24:15.392Z,207.98
2022-09-09T04:25:15.403Z,206.93
2022-09-09T04:26:15.391Z,207.58
2022-09-09T04:27:15.383Z,204.73
2022-09-09T04:28:15.376Z,203.21
2022-09-09T04:29:15.435Z,201.96
2022-09-09T04:30:15.371Z,199.99
2022-09-09T04:31:15.389Z,200.73
2022-09-09T04:32:15.331Z,200.36
2022-09-09T04:33:15.320Z,201.71
2022-09-09T04:34:15.320Z,201.71
2022-09-09T04:35:15.320Z,199.87
2022-09-09T04:36:15.313Z,199.14
2022-09-09T04:37:15.292Z,199.14
2022-09-09T04:38:15.289Z,198.30
2022-09-09T04:39:15.278Z,198.54
2022-09-09T04:40:15.311Z,197.58
2022-09-09T04:41:15.266Z,198.90
2022-09-09T04:42:15.266Z,201.22
2022-09-09T04:43:15.248Z,199.26
2022-09-09T04:44:15.248Z,200.73
2022-09-09T04:45:15.252Z,201.34
2022-09-09T04:46:15.241Z,201.09
2022-09-09T04:47:15.208Z,200.60
2022-09-09T04:48:15.196Z,199.75
2022-09-09T04:49:15.465Z,199.02
2022-09-09T04:50:15.183Z,196.87
2022-09-09T04:51:15.180Z,195.70
2022-09-09T04:52:15.154Z,193.96
2022-09-09T04:53:15.149Z,196.05
2022-09-09T04:54:15.129Z,197.46
2022-09-09T04:55:15.127Z,198.78
2022-09-09T04:56:15.105Z,201.09
2022-09-09T04:57:18.585Z,201.09
2022-09-09T04:58:15.085Z,201.84
2022-09-09T04:59:15.085Z,203.72
2022-09-09T05:00:15.078Z,200.85
2022-09-09T05:01:15.089Z,199.63
2022-09-09T05:02:15.082Z,200.24
2022-09-09T05:03:15.025Z,202.33
2022-09-09T05:04:15.023Z,202.21
2022-09-09T05:05:15.024Z,201.34
2022-09-09T05:06:15.004Z,201.09
2022-09-09T05:07:15.002Z,199.75
2022-09-09T05:08:14.994Z,199.51
2022-09-09T05:09:14.996Z,199.26
2022-09-09T05:10:15.004Z,197.70
2022-09-09T05:11:14.992Z,194.88
2022-09-09T05:12:14.983Z,196.75
2022-09-09T05:13:14.974Z,196.87
2022-09-09T05:14:14.972Z,197.58
2022-09-09T05:15:14.972Z,197.70
2022-09-09T05:16:15.014Z,199.02
2022-09-09T05:17:14.941Z,199.38
2022-09-09T05:18:14.931Z,200.85
2022-09-09T05:19:14.931Z,201.71
2022-09-09T05:20:17.474Z,201.34
2022-09-09T05:21:14.921Z,202.46
2022-09-09T05:22:14.912Z,202.46
2022-09-09T05:23:14.909Z,202.84
2022-09-09T05:24:14.901Z,202.21
2022-09-09T05:25:14.902Z,202.21
2022-09-09T05:26:17.514Z,201.34
2022-09-09T05:27:14.879Z,202.09
2022-09-09T05:28:14.870Z,200.85
2022-09-09T05:29:14.859Z,200.73
2022-09-09T05:30:14.869Z,200.60
2022-09-09T05:31:14.966Z,199.26
2022-09-09T05:32:15.613Z,198.18
2022-09-09T05:33:14.870Z,199.26
2022-09-09T05:34:14.858Z,199.63
2022-09-09T05:35:14.859Z,199.63
2022-09-09T05:36:14.855Z,201.22
2022-09-09T05:37:14.848Z,199.99
2022-09-09T05:38:14.845Z,199.63
2022-09-09T05:39:14.851Z,200.11
2022-09-09T05:40:14.909Z,199.02
2022-09-09T05:41:14.827Z,198.54
2022-09-09T05:42:14.853Z,198.06
2022-09-09T05:43:14.858Z,198.18
2022-09-09T05:44:14.796Z,198.66
2022-09-09T05:45:14.803Z,198.18
2022-09-09T05:46:15.532Z,198.06
2022-09-09T05:47:14.786Z,196.28
2022-09-09T05:48:14.805Z,195.12
2022-09-09T05:49:14.773Z,192.60
2022-09-09T05:50:14.786Z,191.70
2022-09-09T05:51:14.774Z,191.36
2022-09-09T05:52:14.765Z,191.47
2022-09-09T05:53:14.754Z,190.69
2022-09-09T05:54:14.754Z,191.25
2022-09-09T05:55:14.754Z,190.36
2022-09-09T05:56:14.764Z,191.14
2022-09-09T05:57:14.755Z,189.70
2022-09-09T05:58:14.753Z,189.48
2022-09-09T05:59:14.744Z,188.94
2022-09-09T06:00:14.747Z,188.61
2022-09-09T06:01:14.753Z,189.59
2022-09-09T06:02:14.834Z,187.64
2022-09-09T06:03:14.840Z,187.43
2022-09-09T06:04:14.714Z,187.32
2022-09-09T06:05:14.712Z,186.89
2022-09-09T06:06:14.732Z,186.04
2022-09-09T06:07:14.704Z,185.10
2022-09-09T06:08:14.702Z,185.83
2022-09-09T06:09:14.698Z,186.24
2022-09-09T06:10:14.691Z,185.62
2022-09-09T06:11:14.691Z,182.58
2022-09-09T06:12:14.670Z,181.98
2022-09-09T06:13:14.663Z,179.24
2022-09-09T06:14:14.650Z,179.43
2022-09-09T06:15:14.654Z,178.29
2022-09-09T06:16:14.731Z,177.15
2022-09-09T06:17:14.658Z,175.29
2022-09-09T06:18:14.637Z,173.47
2022-09-09T06:19:14.627Z,173.65
2022-09-09T06:20:14.619Z,174.01
2022-09-09T06:21:14.619Z,172.57
2022-09-09T06:22:14.609Z,173.29
2022-09-09T06:23:14.598Z,172.93
2022-09-09T06:24:14.598Z,172.93
2022-09-09T06:25:14.588Z,173.83
2022-09-09T06:26:14.589Z,173.11
2022-09-09T06:27:14.568Z,173.47
2022-09-09T06:28:14.567Z,174.19
2022-09-09T06:29:14.557Z,176.21
2022-09-09T06:30:14.537Z,176.40
2022-09-09T06:31:14.571Z,177.72
2022-09-09T06:32:14.516Z,178.10
2022-09-09T06:33:14.517Z,177.34
2022-09-09T06:34:14.520Z,177.90
2022-09-09T06:35:14.507Z,174.92
2022-09-09T06:36:14.506Z,174.92
2022-09-09T06:37:14.486Z,173.83
2022-09-09T06:38:14.475Z,173.83
2022-09-09T06:39:15.131Z,174.01
2022-09-09T06:40:14.570Z,173.83
2022-09-09T06:41:14.465Z,175.47
2022-09-09T06:42:14.450Z,175.66
2022-09-09T06:43:14.465Z,176.77
2022-09-09T06:44:14.441Z,177.53
2022-09-09T06:45:14.425Z,177.34
2022-09-09T06:46:14.478Z,178.29
2022-09-09T06:47:14.426Z,178.29
2022-09-09T06:48:14.412Z,180.60
2022-09-09T06:49:14.405Z,181.19
2022-09-09T06:50:14.448Z,182.38
2022-09-09T06:51:14.383Z,182.58
2022-09-09T06:52:14.373Z,182.38
2022-09-09T06:53:14.361Z,182.98
2022-09-09T06:54:14.354Z,183.99
2022-09-09T06:55:14.341Z,183.58
2022-09-09T06:56:17.868Z,185.42
2022-09-09T06:57:36.297Z,185.42
2022-09-09T06:58:15.321Z,185.42
2022-09-09T06:59:14.310Z,183.99
2022-09-09T07:00:14.291Z,183.38
2022-09-09T07:01:14.318Z,185.01
2022-09-09T07:02:14.306Z,184.19
2022-09-09T07:03:14.260Z,185.83
2022-09-09T07:04:14.250Z,185.21
2022-09-09T07:05:14.232Z,185.01
2022-09-09T07:06:14.231Z,182.98
2022-09-09T07:07:14.209Z,181.39
2022-09-09T07:08:14.190Z,182.18
2022-09-09T07:09:14.179Z,182.78
2022-09-09T07:10:14.268Z,183.99
2022-09-09T07:11:14.173Z,184.19
2022-09-09T07:12:14.149Z,180.80
2022-09-09T07:13:14.149Z,179.24
2022-09-09T07:14:14.129Z,177.53
2022-09-09T07:15:14.192Z,179.63
2022-09-09T07:16:14.178Z,180.21
2022-09-09T07:17:14.145Z,180.02
2022-09-09T07:18:14.107Z,179.05
2022-09-09T07:19:14.105Z,177.53
2022-09-09T07:20:14.097Z,176.59
2022-09-09T07:21:14.106Z,175.29
2022-09-09T07:22:14.126Z,174.19
2022-09-09T07:23:14.077Z,172.75
2022-09-09T07:24:14.082Z,173.11
2022-09-09T07:25:14.057Z,173.65
2022-09-09T07:26:14.055Z,173.47
2022-09-09T07:27:14.046Z,172.75
2022-09-09T07:28:14.015Z,172.04
2022-09-09T07:29:17.254Z,170.98
2022-09-09T07:30:20.220Z,172.39
2022-09-09T07:31:15.069Z,170.46
2022-09-09T07:32:14.003Z,168.90
2022-09-09T07:33:13.950Z,167.71
2022-09-09T07:34:13.935Z,165.22
2022-09-09T07:35:13.922Z,165.06
2022-09-09T07:36:13.915Z,164.25
2022-09-09T07:37:13.901Z,162.17
2022-09-09T07:38:13.874Z,161.39
2022-09-09T07:39:13.856Z,160.61
2022-09-09T07:40:13.913Z,158.93
2022-09-09T07:41:13.823Z,156.40
2022-09-09T07:42:13.823Z,157.28
2022-09-09T07:43:17.221Z,156.25
2022-09-09T07:44:13.782Z,155.67
2022-09-09T07:45:13.777Z,154.80
2022-09-09T07:46:13.824Z,153.38
2022-09-09T07:47:13.779Z,155.23
2022-09-09T07:48:13.781Z,156.25
2022-09-09T07:49:13.754Z,154.51
2022-09-09T07:50:13.784Z,154.37
2022-09-09T07:51:13.738Z,155.38
2022-09-09T07:52:14.948Z,154.80
2022-09-09T07:53:13.711Z,156.10
2022-09-09T07:54:13.707Z,155.67
2022-09-09T07:55:13.691Z,156.54
2022-09-09T07:56:13.693Z,155.96
2022-09-09T07:57:13.700Z,155.81
2022-09-09T07:58:13.677Z,155.52
2022-09-09T07:59:13.680Z,154.80
2022-09-09T08:00:13.681Z,154.94
2022-09-09T08:01:13.660Z,154.94
2022-09-09T08:02:13.658Z,153.94
2022-09-09T08:03:13.748Z,152.96
2022-09-09T08:04:13.639Z,152.54
2022-09-09T08:05:13.639Z,155.23
2022-09-09T08:06:13.619Z,155.81
2022-09-09T08:07:13.640Z,157.58
2022-09-09T08:08:13.608Z,159.23
2022-09-09T08:09:13.602Z,159.23
2022-09-09T08:10:13.598Z,161.39
2022-09-09T08:11:13.586Z,163.12
2022-09-09T08:12:13.586Z,165.39
2022-09-09T08:13:18.451Z,165.71
2022-09-09T08:14:14.563Z,165.88
2022-09-09T08:15:13.557Z,166.04
2022-09-09T08:16:13.619Z,166.04
2022-09-09T08:17:13.526Z,166.04
2022-09-09T08:18:13.506Z,166.38
2022-09-09T08:19:13.497Z,166.21
2022-09-09T08:20:14.215Z,166.71
2022-09-09T08:21:13.499Z,166.21
2022-09-09T08:22:13.493Z,167.54
2022-09-09T08:23:13.466Z,167.71
2022-09-09T08:24:13.464Z,167.54
2022-09-09T08:25:13.462Z,169.59
2022-09-09T08:26:13.445Z,167.71
2022-09-09T08:27:13.462Z,167.21
2022-09-09T08:28:13.434Z,166.88
2022-09-09T08:29:13.443Z,167.21
2022-09-09T08:30:14.027Z,167.88
2022-09-09T08:31:13.581Z,167.04
2022-09-09T08:32:13.423Z,168.56
2022-09-09T08:33:13.425Z,168.90
2022-09-09T08:34:13.418Z,168.56
2022-09-09T08:35:13.411Z,168.73
2022-09-09T08:36:13.409Z,167.54
2022-09-09T08:37:13.413Z,169.76
2022-09-09T08:38:13.403Z,168.90
2022-09-09T08:39:13.402Z,167.38
2022-09-09T08:40:13.429Z,167.54
2022-09-09T08:41:13.407Z,167.54
2022-09-09T08:42:13.634Z,168.56
2022-09-09T08:43:13.400Z,166.04
2022-09-09T08:44:13.416Z,165.55
2022-09-09T08:45:13.402Z,164.57
2022-09-09T08:46:13.474Z,164.90
2022-09-09T08:47:13.412Z,165.22
2022-09-09T08:48:13.400Z,163.60
2022-09-09T08:49:13.400Z,162.65
2022-09-09T08:50:13.390Z,162.96
2022-09-09T08:51:13.389Z,164.57
2022-09-09T08:52:13.389Z,163.92
2022-09-09T08:53:13.376Z,163.12
2022-09-09T08:54:13.749Z,163.44
2022-09-09T08:55:13.409Z,163.12
2022-09-09T08:56:13.384Z,163.44
2022-09-09T08:57:13.400Z,162.80
2022-09-09T08:58:13.381Z,165.22
2022-09-09T08:59:13.366Z,165.39
2022-09-09T09:00:13.365Z,164.57
2022-09-09T09:01:13.391Z,164.09
2022-09-09T09:02:16.515Z,163.76
2022-09-09T09:03:13.338Z,163.76
2022-09-09T09:04:13.361Z,163.44
2022-09-09T09:05:13.307Z,162.96
2022-09-09T09:06:13.307Z,163.60
2022-09-09T09:07:13.305Z,162.17
2022-09-09T09:08:13.306Z,161.39
2022-09-09T09:09:13.295Z,161.54
2022-09-09T09:10:37.687Z,160.46
2022-09-09T09:11:14.274Z,160.77
2022-09-09T09:12:13.275Z,159.84
2022-09-09T09:13:13.255Z,159.38
2022-09-09T09:14:13.274Z,159.08
2022-09-09T09:15:13.224Z,159.38
2022-09-09T09:16:13.269Z,158.93
2022-09-09T09:17:13.215Z,158.32
2022-09-09T09:18:13.194Z,158.63
2022-09-09T09:19:13.187Z,159.38
2022-09-09T09:20:13.175Z,157.28
2022-09-09T09:21:13.158Z,159.08
2022-09-09T09:22:13.163Z,157.88
2022-09-09T09:23:13.134Z,157.88
2022-09-09T09:24:13.131Z,158.48
2022-09-09T09:25:13.123Z,158.63
2022-09-09T09:26:13.124Z,158.63
2022-09-09T09:27:13.138Z,159.54
2022-09-09T09:28:13.097Z,161.23
2022-09-09T09:29:13.173Z,162.80
2022-09-09T09:30:25.306Z,163.60
2022-09-09T09:31:14.110Z,162.33
2022-09-09T09:32:13.061Z,161.23
2022-09-09T09:33:13.042Z,162.33
2022-09-09T09:34:13.030Z,163.12
2022-09-09T09:35:13.070Z,163.12
2022-09-09T09:36:13.051Z,162.33
2022-09-09T09:37:13.031Z,162.33
2022-09-09T09:40:14.095Z,162.65
2022-09-09T09:41:12.989Z,164.41
2022-09-09T09:42:12.979Z,162.80
2022-09-09T09:43:12.989Z,161.86
2022-09-09T09:44:12.987Z,164.09
2022-09-09T09:45:12.967Z,163.28
2022-09-09T09:46:17.902Z,161.39
2022-09-09T09:47:13.955Z,160.77
2022-09-09T09:48:13.907Z,161.86
2022-09-09T09:49:12.939Z,162.65
2022-09-09T09:50:12.985Z,162.96
2022-09-09T09:51:12.917Z,163.44
2022-09-09T09:52:12.908Z,163.28
2022-09-09T09:53:12.949Z,163.44
2022-09-09T09:54:12.887Z,164.09
2022-09-09T09:55:12.884Z,164.90
2022-09-09T09:56:12.877Z,169.42
2022-09-09T09:57:12.856Z,168.56
2022-09-09T09:58:15.121Z,169.76
2022-09-09T09:59:23.552Z,167.88
2022-09-09T10:00:13.968Z,167.88
2022-09-09T10:01:12.848Z,168.05
2022-09-09T10:02:12.816Z,168.22
2022-09-09T10:03:12.808Z,167.38
2022-09-09T10:04:12.804Z,168.56
2022-09-09T10:05:12.773Z,169.24
2022-09-09T10:06:12.764Z,169.42
2022-09-09T10:07:12.753Z,169.42
2022-09-09T10:08:12.746Z,169.24
2022-09-09T10:09:12.723Z,169.93
2022-09-09T10:10:12.714Z,169.76
2022-09-09T10:11:12.694Z,169.76
2022-09-09T10:12:12.699Z,169.07
2022-09-09T10:13:12.697Z,168.22
2022-09-09T10:14:12.677Z,166.88
2022-09-09T10:15:12.653Z,166.71
2022-09-09T10:16:12.672Z,166.71
2022-09-09T10:17:12.637Z,165.88
2022-09-09T10:18:12.622Z,165.55
2022-09-09T10:19:12.600Z,166.21
2022-09-09T10:20:12.582Z,167.04
2022-09-09T10:21:12.572Z,167.54
2022-09-09T10:22:16.130Z,168.73
2022-09-09T10:23:14.280Z,168.22
2022-09-09T10:24:16.433Z,169.42
2022-09-09T10:25:13.181Z,169.24
2022-09-09T10:26:15.951Z,169.59
2022-09-09T10:27:13.842Z,168.39
2022-09-09T10:28:13.199Z,169.76
2022-09-09T10:29:12.517Z,167.38
2022-09-09T10:30:12.501Z,168.22
2022-09-09T10:31:13.106Z,166.88
2022-09-09T10:32:15.491Z,166.21
2022-09-09T10:33:12.666Z,165.06
2022-09-09T10:34:12.832Z,164.09
2022-09-09T10:35:13.050Z,163.28
2022-09-09T10:36:13.306Z,164.41
2022-09-09T10:37:12.612Z,164.41
2022-09-09T10:38:12.405Z,163.60
2022-09-09T10:39:12.448Z,162.33
2022-09-09T10:40:12.462Z,161.86
2022-09-09T10:41:12.358Z,160.92
2022-09-09T10:42:12.349Z,159.84
2022-09-09T10:43:12.337Z,160.30
2022-09-09T10:44:12.329Z,159.84
2022-09-09T10:45:12.306Z,159.54
2022-09-09T10:46:12.341Z,158.03
2022-09-09T10:47:12.287Z,158.48
2022-09-09T10:48:12.266Z,158.78
2022-09-09T10:49:12.256Z,159.69
2022-09-09T10:50:12.236Z,160.30
2022-09-09T10:51:12.218Z,159.69
2022-09-09T10:52:12.205Z,160.15
2022-09-09T10:53:12.186Z,158.63
2022-09-09T10:54:12.185Z,157.43
2022-09-09T10:55:12.157Z,156.25
2022-09-09T10:56:12.132Z,156.25
2022-09-09T10:57:12.115Z,154.51
2022-09-09T10:58:12.105Z,152.82
2022-09-09T10:59:12.104Z,153.24
2022-09-09T11:00:12.114Z,152.26
2022-09-09T11:01:12.145Z,151.29
2022-09-09T11:02:12.053Z,151.43
2022-09-09T11:03:12.044Z,151.71
2022-09-09T11:04:12.086Z,152.68
2022-09-09T11:05:12.013Z,152.26
2022-09-09T11:06:12.073Z,152.96
2022-09-09T11:07:12.345Z,153.10
2022-09-09T11:08:12.095Z,154.94
2022-09-09T11:09:12.023Z,155.38
2022-09-09T11:10:11.975Z,155.52
2022-09-09T11:11:11.953Z,156.84
2022-09-09T11:12:11.954Z,157.28
2022-09-09T11:13:14.672Z,158.48
2022-09-09T11:14:11.911Z,161.08
2022-09-09T11:15:11.899Z,162.96
2022-09-09T11:16:11.881Z,164.09
2022-09-09T11:17:11.897Z,164.90
2022-09-09T11:18:15.361Z,165.88
2022-09-09T11:19:11.822Z,168.39
2022-09-09T11:20:11.822Z,168.39
2022-09-09T11:21:11.810Z,172.57
2022-09-09T11:22:11.775Z,174.92
2022-09-09T11:23:11.809Z,176.21
2022-09-09T11:24:11.758Z,185.62
2022-09-09T11:25:11.788Z,190.91
2022-09-09T11:26:12.493Z,197.11
2022-09-09T11:27:11.757Z,201.71
2022-09-09T11:28:11.698Z,206.54
2022-09-09T11:29:11.752Z,206.80
2022-09-09T11:30:11.679Z,208.77
2022-09-09T11:31:11.763Z,209.57
2022-09-09T11:32:11.678Z,210.92
2022-09-09T11:33:11.658Z,209.17
2022-09-09T11:34:11.648Z,207.32
2022-09-09T11:35:11.647Z,205.12
2022-09-09T11:36:11.642Z,202.71
2022-09-09T11:37:11.627Z,200.36
2022-09-09T11:38:11.646Z,196.99
2022-09-09T11:39:11.637Z,194.31
2022-09-09T11:40:11.754Z,193.85
2022-09-09T11:41:11.646Z,189.48
2022-09-09T11:42:11.626Z,187.43
2022-09-09T11:43:11.646Z,185.20
2022-09-09T11:44:11.626Z,186.24
2022-09-09T11:45:11.639Z,184.39
2022-09-09T11:46:11.694Z,181.39
2022-09-09T11:47:11.644Z,179.05
2022-09-09T11:48:11.616Z,177.72
2022-09-09T11:49:11.625Z,174.92
2022-09-09T11:50:11.637Z,173.83
2022-09-09T11:51:16.676Z,172.57
2022-09-09T11:52:12.613Z,171.15
2022-09-09T11:53:11.652Z,169.76
2022-09-09T11:54:11.605Z,168.05
2022-09-09T11:55:11.606Z,166.71
2022-09-09T11:56:11.595Z,164.90
2022-09-09T11:57:11.601Z,163.60
2022-09-09T11:58:11.612Z,163.92
2022-09-09T11:59:11.602Z,164.09
2022-09-09T12:00:11.602Z,163.92
2022-09-09T12:01:11.592Z,164.41
2022-09-09T12:02:11.655Z,162.33
2022-09-09T12:03:11.600Z,162.17
2022-09-09T12:04:11.605Z,161.23
2022-09-09T12:05:11.649Z,160.15
2022-09-09T12:06:11.590Z,159.99
2022-09-09T12:07:11.608Z,160.92
2022-09-09T12:08:11.572Z,160.46
2022-09-09T12:09:11.563Z,162.17
2022-09-09T12:10:11.571Z,161.39
2022-09-09T12:11:11.549Z,159.08
2022-09-09T12:12:11.577Z,159.54
2022-09-09T12:13:11.529Z,158.18
2022-09-09T12:14:11.531Z,158.03
2022-09-09T12:15:11.554Z,159.54
2022-09-09T12:16:11.548Z,159.08
2022-09-09T12:17:11.532Z,158.93
2022-09-09T12:18:11.479Z,159.23
2022-09-09T12:19:11.518Z,157.13
2022-09-09T12:20:11.475Z,157.28
2022-09-09T12:21:11.491Z,157.58
2022-09-09T12:22:11.457Z,157.73
2022-09-09T12:23:11.469Z,159.08
2022-09-09T12:24:11.613Z,157.28
2022-09-09T12:25:11.437Z,158.63
2022-09-09T12:26:11.439Z,157.58
2022-09-09T12:27:11.407Z,156.69
2022-09-09T12:28:11.405Z,156.54
2022-09-09T12:29:11.406Z,156.54
2022-09-09T12:30:11.406Z,156.69